Friday, December 14, 2018, 12:03 PM EST
Back to Local

KMVL, Morrisville Stowe State Airport

Location: Morrisville, VT, United States Lat: 44.533
Local Time: 12:03 PM EST (17:03 GMT) Lon: -72.617
Time Zone: US/Eastern Elev: 731 ft

Show me the last for .
Show Decoded

2018-12-14 10:54 METAR KMVL 141554Z AUTO 32003KT 10SM OVC026 M04/M04 A3038 RMK AO2 SLP300
                 T10391039 =
2018-12-14 09:54 METAR KMVL 141454Z AUTO 00000KT 10SM OVC026 M05/M05 A3040 RMK AO2 SLP308
                 T10501050 58003 =
2018-12-14 08:54 METAR KMVL 141354Z AUTO 00000KT 10SM OVC024 M07/M07 A3041 RMK AO2 SLP313
                 T10671067 =
2018-12-14 07:54 METAR KMVL 141254Z AUTO 00000KT 10SM OVC028 M07/M07 A3041 RMK AO2 SLP312
                 T10721072 =
2018-12-14 06:54 METAR KMVL 141154Z AUTO 00000KT 10SM OVC027 M07/M07 A3041 RMK AO2 SLP312
                 T10721072 11067 21117 56008 =
2018-12-14 06:24 METAR KMVL 141124Z AUTO 00000KT 10SM BKN028 OVC036 M09/M09 A3042 RMK AO2
                 T10891089 =
2018-12-14 05:54 METAR KMVL 141054Z AUTO 23003KT 10SM SCT032 M09/M09 A3041 RMK AO2 SLP314
                 T10891094 =
2018-12-14 05:21 METAR KMVL 141021Z AUTO 00000KT 10SM SCT029 M08/M09 A3040 RMK AO2 T10831089 =
2018-12-14 04:54 METAR KMVL 140954Z AUTO 00000KT 10SM OVC029 M07/M08 A3041 RMK AO2 SLP313
                 T10671078 =
2018-12-14 03:54 METAR KMVL 140854Z AUTO 00000KT 10SM OVC028 M08/M09 A3043 RMK AO2 SLP321
                 T10781089 58008 =
2018-12-14 03:36 METAR KMVL 140836Z AUTO 00000KT 10SM OVC029 M09/M09 A3043 RMK AO2 T10891094 =
2018-12-14 03:18 METAR KMVL 140818Z AUTO 22003KT 10SM OVC030 M09/M09 A3044 RMK AO2 T10891094 =
2018-12-14 02:54 METAR KMVL 140754Z AUTO 19003KT 10SM BKN028 M11/M11 A3045 RMK AO2 SLP327
                 T11111111 =
2018-12-14 02:39 METAR KMVL 140739Z AUTO 00000KT 10SM BKN028 M11/M11 A3045 RMK AO2 T11111111 =
2018-12-14 01:54 METAR KMVL 140654Z AUTO 00000KT 10SM CLR M11/M11 A3044 RMK AO2 SLP324 T11111111
                 =
2018-12-14 00:54 METAR KMVL 140554Z AUTO 17004KT 10SM FEW046 M09/M10 A3046 RMK AO2 SLP329
                 T10891100 11061 21089 58009 =
2018-12-14 00:05 METAR KMVL 140505Z AUTO 14005KT 10SM SCT026 OVC048 M06/M09 A3046 RMK AO2
                 T10611089 =
2018-12-13 23:54 METAR KMVL 140454Z AUTO 17006KT 10SM BKN026 OVC049 M07/M09 A3046 RMK AO2 SLP332
                 T10671089 410611261 =
2018-12-13 22:54 METAR KMVL 140354Z AUTO 16006KT 10SM OVC023 M07/M09 A3048 RMK AO2 SLP338
                 T10671094 =
2018-12-13 21:54 METAR KMVL 140254Z AUTO 17005KT 10SM OVC024 M07/M09 A3048 RMK AO2 SLP341
                 T10721094 51003 =
2018-12-13 20:54 METAR KMVL 140154Z AUTO 00000KT 10SM OVC023 M07/M10 A3048 RMK AO2 SLP342
                 T10671100 =
2018-12-13 19:54 METAR KMVL 140054Z AUTO 00000KT 10SM OVC025 M07/M11 A3048 RMK AO2 SLP344
                 T10721106 =
2018-12-13 18:54 METAR KMVL 132354Z AUTO 00000KT 10SM OVC028 M07/M11 A3047 RMK AO2 SLP341
                 T10721111 11067 21078 51005 =
2018-12-13 18:06 METAR KMVL 132306Z AUTO 19004KT 10SM OVC028 M07/M11 A3047 RMK AO2 T10721111 =
2018-12-13 17:54 METAR KMVL 132254Z AUTO VRB04KT 10SM OVC030 M07/M12 A3047 RMK AO2 SLP339
                 T10721117 =
2018-12-13 16:54 METAR KMVL 132154Z AUTO VRB03KT 10SM SCT036 OVC046 M07/M12 A3047 RMK AO2 SLP341
                 T10721117 =
2018-12-13 15:54 METAR KMVL 132054Z AUTO 22003KT 10SM OVC045 M07/M13 A3046 RMK AO2 SLP335
                 T10721128 53010 =
2018-12-13 14:54 METAR KMVL 131954Z AUTO 21005KT 10SM FEW045 M07/M14 A3044 RMK AO2 SLP327
                 T10721139 =
2018-12-13 13:54 METAR KMVL 131854Z AUTO 21007KT 10SM SCT039 M07/M14 A3043 RMK AO2 SLP324
                 T10671144 =
2018-12-13 12:54 METAR KMVL 131754Z AUTO 19005KT 10SM CLR M08/M14 A3043 RMK AO2 SLP324 T10781144
                 11078 21256 58016 =

Support USWX by starting your Amazon purchase here.